sensor_id;sensor_type;location;lat;lon;timestamp;P1;durP1;ratioP1;P2;durP2;ratioP2
73672;SDS011;61972;19.480;-99.240;2022-09-17T00:01:22;4.80;;;1.50;;
73672;SDS011;61972;19.480;-99.240;2022-09-17T00:04:24;3.83;;;1.70;;
73672;SDS011;61972;19.480;-99.240;2022-09-17T00:06:50;3.92;;;1.67;;
73672;SDS011;61972;19.480;-99.240;2022-09-17T00:09:22;3.67;;;1.85;;
73672;SDS011;61972;19.480;-99.240;2022-09-17T00:11:48;3.50;;;1.53;;
73672;SDS011;61972;19.480;-99.240;2022-09-17T00:14:24;3.38;;;1.50;;
73672;SDS011;61972;19.480;-99.240;2022-09-17T00:16:53;4.43;;;1.92;;
73672;SDS011;61972;19.480;-99.240;2022-09-17T00:19:25;4.82;;;2.50;;
73672;SDS011;61972;19.480;-99.240;2022-09-17T00:21:51;3.42;;;1.80;;
73672;SDS011;61972;19.480;-99.240;2022-09-17T00:24:38;3.93;;;1.90;;
73672;SDS011;61972;19.480;-99.240;2022-09-17T00:27:04;4.25;;;1.70;;
73672;SDS011;61972;19.480;-99.240;2022-09-17T00:29:41;3.50;;;1.80;;
73672;SDS011;61972;19.480;-99.240;2022-09-17T00:32:07;2.50;;;1.30;;
73672;SDS011;61972;19.480;-99.240;2022-09-17T00:34:37;4.82;;;1.80;;
73672;SDS011;61972;19.480;-99.240;2022-09-17T00:40:27;4.85;;;1.52;;
73672;SDS011;61972;19.480;-99.240;2022-09-17T00:49:23;4.28;;;1.90;;
73672;SDS011;61972;19.480;-99.240;2022-09-17T00:52:18;5.43;;;1.83;;
73672;SDS011;61972;19.480;-99.240;2022-09-17T00:54:51;2.83;;;1.25;;
73672;SDS011;61972;19.480;-99.240;2022-09-17T00:57:30;4.30;;;1.83;;
73672;SDS011;61972;19.480;-99.240;2022-09-17T00:59:56;3.97;;;1.50;;
73672;SDS011;61972;19.480;-99.240;2022-09-17T01:02:28;3.15;;;1.58;;
73672;SDS011;61972;19.480;-99.240;2022-09-17T01:04:57;3.37;;;1.43;;
73672;SDS011;61972;19.480;-99.240;2022-09-17T01:10:47;4.07;;;2.15;;
73672;SDS011;61972;19.480;-99.240;2022-09-17T01:20:30;3.50;;;2.10;;
73672;SDS011;61972;19.480;-99.240;2022-09-17T01:41:30;4.28;;;2.17;;
73672;SDS011;61972;19.480;-99.240;2022-09-17T01:47:29;7.65;;;2.08;;
73672;SDS011;61972;19.480;-99.240;2022-09-17T01:53:22;5.18;;;1.90;;
73672;SDS011;61972;19.480;-99.240;2022-09-17T02:05:10;4.57;;;1.70;;
73672;SDS011;61972;19.480;-99.240;2022-09-17T02:20:27;3.67;;;1.40;;
73672;SDS011;61972;19.480;-99.240;2022-09-17T02:23:03;3.42;;;1.50;;
73672;SDS011;61972;19.480;-99.240;2022-09-17T02:26:03;3.10;;;1.63;;
73672;SDS011;61972;19.480;-99.240;2022-09-17T02:28:58;3.13;;;1.70;;
73672;SDS011;61972;19.480;-99.240;2022-09-17T02:48:32;2.80;;;1.42;;
73672;SDS011;61972;19.480;-99.240;2022-09-17T03:00:58;3.70;;;1.50;;
73672;SDS011;61972;19.480;-99.240;2022-09-17T03:06:37;2.90;;;1.37;;
73672;SDS011;61972;19.480;-99.240;2022-09-17T03:09:04;2.40;;;1.30;;
73672;SDS011;61972;19.480;-99.240;2022-09-17T03:11:36;2.30;;;1.20;;
73672;SDS011;61972;19.480;-99.240;2022-09-17T03:17:49;2.33;;;1.17;;
73672;SDS011;61972;19.480;-99.240;2022-09-17T03:21:01;2.67;;;1.40;;
73672;SDS011;61972;19.480;-99.240;2022-09-17T03:23:40;4.43;;;1.50;;
73672;SDS011;61972;19.480;-99.240;2022-09-17T03:26:09;2.75;;;1.65;;
73672;SDS011;61972;19.480;-99.240;2022-09-17T03:29:16;3.33;;;1.35;;
73672;SDS011;61972;19.480;-99.240;2022-09-17T03:32:13;3.65;;;1.60;;
73672;SDS011;61972;19.480;-99.240;2022-09-17T03:35:26;3.20;;;1.30;;
73672;SDS011;61972;19.480;-99.240;2022-09-17T03:38:15;3.72;;;1.65;;
73672;SDS011;61972;19.480;-99.240;2022-09-17T03:41:03;3.47;;;1.60;;
73672;SDS011;61972;19.480;-99.240;2022-09-17T03:43:39;3.50;;;1.58;;
73672;SDS011;61972;19.480;-99.240;2022-09-17T03:46:07;2.67;;;1.35;;
73672;SDS011;61972;19.480;-99.240;2022-09-17T03:48:33;2.73;;;1.40;;
73672;SDS011;61972;19.480;-99.240;2022-09-17T03:51:04;5.15;;;1.42;;
73672;SDS011;61972;19.480;-99.240;2022-09-17T03:53:39;3.08;;;1.65;;
73672;SDS011;61972;19.480;-99.240;2022-09-17T03:56:08;2.42;;;1.50;;
73672;SDS011;61972;19.480;-99.240;2022-09-17T03:58:40;3.58;;;1.50;;
73672;SDS011;61972;19.480;-99.240;2022-09-17T04:01:41;4.23;;;1.67;;
73672;SDS011;61972;19.480;-99.240;2022-09-17T04:04:07;2.90;;;1.40;;
73672;SDS011;61972;19.480;-99.240;2022-09-17T04:06:36;4.80;;;1.70;;
73672;SDS011;61972;19.480;-99.240;2022-09-17T04:09:05;2.78;;;1.40;;
73672;SDS011;61972;19.480;-99.240;2022-09-17T04:11:52;3.63;;;1.80;;
73672;SDS011;61972;19.480;-99.240;2022-09-17T04:14:20;4.63;;;1.50;;
73672;SDS011;61972;19.480;-99.240;2022-09-17T04:16:49;3.15;;;1.50;;
73672;SDS011;61972;19.480;-99.240;2022-09-17T04:19:15;3.40;;;1.30;;
73672;SDS011;61972;19.480;-99.240;2022-09-17T04:21:41;5.03;;;1.60;;
73672;SDS011;61972;19.480;-99.240;2022-09-17T04:24:16;3.55;;;1.50;;
73672;SDS011;61972;19.480;-99.240;2022-09-17T04:26:42;2.77;;;1.57;;
73672;SDS011;61972;19.480;-99.240;2022-09-17T04:29:11;3.55;;;1.50;;
73672;SDS011;61972;19.480;-99.240;2022-09-17T04:31:37;2.97;;;1.65;;
73672;SDS011;61972;19.480;-99.240;2022-09-17T04:34:13;2.40;;;1.50;;
73672;SDS011;61972;19.480;-99.240;2022-09-17T04:36:48;2.83;;;1.42;;
73672;SDS011;61972;19.480;-99.240;2022-09-17T04:39:26;3.10;;;1.47;;
73672;SDS011;61972;19.480;-99.240;2022-09-17T04:42:04;2.35;;;1.42;;
73672;SDS011;61972;19.480;-99.240;2022-09-17T04:49:21;2.25;;;1.20;;
73672;SDS011;61972;19.480;-99.240;2022-09-17T04:52:02;2.50;;;1.50;;
73672;SDS011;61972;19.480;-99.240;2022-09-17T04:54:31;3.60;;;1.27;;
73672;SDS011;61972;19.480;-99.240;2022-09-17T04:57:02;2.50;;;1.25;;
73672;SDS011;61972;19.480;-99.240;2022-09-17T04:59:31;3.28;;;1.40;;
73672;SDS011;61972;19.480;-99.240;2022-09-17T05:02:03;2.10;;;1.30;;
73672;SDS011;61972;19.480;-99.240;2022-09-17T05:04:47;2.08;;;1.20;;
73672;SDS011;61972;19.480;-99.240;2022-09-17T05:07:15;1.83;;;1.20;;
73672;SDS011;61972;19.480;-99.240;2022-09-17T05:09:41;2.38;;;1.15;;
73672;SDS011;61972;19.480;-99.240;2022-09-17T05:12:12;1.95;;;1.10;;
73672;SDS011;61972;19.480;-99.240;2022-09-17T05:14:38;1.92;;;1.13;;
73672;SDS011;61972;19.480;-99.240;2022-09-17T05:17:05;2.65;;;1.30;;
73672;SDS011;61972;19.480;-99.240;2022-09-17T05:19:31;2.00;;;1.10;;
73672;SDS011;61972;19.480;-99.240;2022-09-17T05:21:57;2.88;;;1.20;;
73672;SDS011;61972;19.480;-99.240;2022-09-17T05:24:23;2.00;;;1.15;;
73672;SDS011;61972;19.480;-99.240;2022-09-17T05:26:49;1.98;;;1.10;;
73672;SDS011;61972;19.480;-99.240;2022-09-17T05:29:15;2.08;;;1.40;;
73672;SDS011;61972;19.480;-99.240;2022-09-17T05:31:41;1.90;;;1.13;;
73672;SDS011;61972;19.480;-99.240;2022-09-17T05:34:07;4.18;;;1.30;;
73672;SDS011;61972;19.480;-99.240;2022-09-17T05:36:33;4.57;;;1.40;;
73672;SDS011;61972;19.480;-99.240;2022-09-17T05:38:59;2.20;;;1.13;;
73672;SDS011;61972;19.480;-99.240;2022-09-17T05:41:26;3.13;;;1.40;;
73672;SDS011;61972;19.480;-99.240;2022-09-17T05:43:52;1.93;;;1.30;;
73672;SDS011;61972;19.480;-99.240;2022-09-17T05:46:18;2.97;;;1.50;;
73672;SDS011;61972;19.480;-99.240;2022-09-17T05:48:44;2.22;;;1.45;;
73672;SDS011;61972;19.480;-99.240;2022-09-17T05:51:10;2.13;;;1.23;;
73672;SDS011;61972;19.480;-99.240;2022-09-17T05:53:36;2.45;;;1.30;;
73672;SDS011;61972;19.480;-99.240;2022-09-17T05:56:02;2.30;;;1.20;;
73672;SDS011;61972;19.480;-99.240;2022-09-17T05:58:28;2.55;;;1.40;;
73672;SDS011;61972;19.480;-99.240;2022-09-17T06:00:59;1.80;;;1.30;;
73672;SDS011;61972;19.480;-99.240;2022-09-17T06:03:25;2.13;;;1.30;;
73672;SDS011;61972;19.480;-99.240;2022-09-17T06:05:55;2.05;;;1.20;;
73672;SDS011;61972;19.480;-99.240;2022-09-17T06:08:23;2.33;;;1.30;;
73672;SDS011;61972;19.480;-99.240;2022-09-17T06:10:51;2.50;;;1.20;;
73672;SDS011;61972;19.480;-99.240;2022-09-17T06:13:18;2.10;;;1.30;;
73672;SDS011;61972;19.480;-99.240;2022-09-17T06:15:49;2.88;;;1.38;;
73672;SDS011;61972;19.480;-99.240;2022-09-17T06:18:16;2.15;;;1.40;;
73672;SDS011;61972;19.480;-99.240;2022-09-17T06:20:42;2.30;;;1.20;;
73672;SDS011;61972;19.480;-99.240;2022-09-17T06:23:18;1.83;;;1.17;;
73672;SDS011;61972;19.480;-99.240;2022-09-17T06:25:48;2.53;;;1.30;;
73672;SDS011;61972;19.480;-99.240;2022-09-17T06:28:22;2.08;;;1.00;;
73672;SDS011;61972;19.480;-99.240;2022-09-17T06:30:48;2.90;;;1.30;;
73672;SDS011;61972;19.480;-99.240;2022-09-17T06:33:16;1.90;;;1.23;;
73672;SDS011;61972;19.480;-99.240;2022-09-17T06:35:43;2.03;;;1.30;;
73672;SDS011;61972;19.480;-99.240;2022-09-17T06:38:09;1.63;;;1.00;;
73672;SDS011;61972;19.480;-99.240;2022-09-17T06:40:35;2.17;;;1.20;;
73672;SDS011;61972;19.480;-99.240;2022-09-17T06:43:02;2.30;;;1.25;;
73672;SDS011;61972;19.480;-99.240;2022-09-17T06:45:28;2.20;;;1.17;;
73672;SDS011;61972;19.480;-99.240;2022-09-17T06:47:54;1.55;;;1.10;;
73672;SDS011;61972;19.480;-99.240;2022-09-17T06:50:21;2.63;;;1.13;;
73672;SDS011;61972;19.480;-99.240;2022-09-17T06:52:50;2.15;;;1.20;;
73672;SDS011;61972;19.480;-99.240;2022-09-17T06:55:17;2.22;;;1.30;;
73672;SDS011;61972;19.480;-99.240;2022-09-17T06:57:44;1.90;;;1.13;;
73672;SDS011;61972;19.480;-99.240;2022-09-17T07:00:11;1.60;;;1.02;;
73672;SDS011;61972;19.480;-99.240;2022-09-17T07:02:39;2.35;;;1.00;;
73672;SDS011;61972;19.480;-99.240;2022-09-17T07:05:05;1.60;;;0.93;;
73672;SDS011;61972;19.480;-99.240;2022-09-17T07:07:32;3.47;;;1.25;;
73672;SDS011;61972;19.480;-99.240;2022-09-17T07:10:02;1.77;;;0.90;;
73672;SDS011;61972;19.480;-99.240;2022-09-17T07:12:28;2.80;;;1.02;;
73672;SDS011;61972;19.480;-99.240;2022-09-17T07:14:54;3.78;;;1.15;;
73672;SDS011;61972;19.480;-99.240;2022-09-17T07:17:20;2.35;;;1.10;;
73672;SDS011;61972;19.480;-99.240;2022-09-17T07:19:46;2.45;;;1.25;;
73672;SDS011;61972;19.480;-99.240;2022-09-17T07:22:12;2.87;;;1.03;;
73672;SDS011;61972;19.480;-99.240;2022-09-17T07:24:38;2.60;;;1.08;;
73672;SDS011;61972;19.480;-99.240;2022-09-17T07:27:04;2.90;;;1.38;;
73672;SDS011;61972;19.480;-99.240;2022-09-17T07:29:30;1.60;;;0.95;;
73672;SDS011;61972;19.480;-99.240;2022-09-17T07:31:56;2.85;;;1.20;;
73672;SDS011;61972;19.480;-99.240;2022-09-17T07:34:24;3.53;;;1.03;;
73672;SDS011;61972;19.480;-99.240;2022-09-17T07:36:52;3.75;;;1.20;;
73672;SDS011;61972;19.480;-99.240;2022-09-17T07:39:19;3.10;;;0.95;;
73672;SDS011;61972;19.480;-99.240;2022-09-17T07:41:45;2.30;;;1.30;;
73672;SDS011;61972;19.480;-99.240;2022-09-17T07:44:11;2.20;;;1.20;;
73672;SDS011;61972;19.480;-99.240;2022-09-17T07:46:37;5.17;;;1.30;;
73672;SDS011;61972;19.480;-99.240;2022-09-17T07:49:03;3.58;;;1.30;;
73672;SDS011;61972;19.480;-99.240;2022-09-17T07:51:29;4.10;;;1.67;;
73672;SDS011;61972;19.480;-99.240;2022-09-17T07:53:56;3.17;;;1.58;;
73672;SDS011;61972;19.480;-99.240;2022-09-17T07:56:24;5.90;;;1.90;;
73672;SDS011;61972;19.480;-99.240;2022-09-17T07:58:52;5.67;;;1.93;;
73672;SDS011;61972;19.480;-99.240;2022-09-17T08:01:18;5.43;;;1.95;;
73672;SDS011;61972;19.480;-99.240;2022-09-17T08:03:48;7.28;;;2.20;;
73672;SDS011;61972;19.480;-99.240;2022-09-17T08:06:17;5.90;;;2.00;;
73672;SDS011;61972;19.480;-99.240;2022-09-17T08:08:56;4.72;;;1.80;;
73672;SDS011;61972;19.480;-99.240;2022-09-17T08:11:25;7.30;;;1.83;;
73672;SDS011;61972;19.480;-99.240;2022-09-17T08:13:53;5.75;;;1.98;;
73672;SDS011;61972;19.480;-99.240;2022-09-17T08:16:19;5.22;;;2.00;;
73672;SDS011;61972;19.480;-99.240;2022-09-17T08:18:47;6.22;;;1.67;;
73672;SDS011;61972;19.480;-99.240;2022-09-17T08:21:15;5.47;;;1.70;;
73672;SDS011;61972;19.480;-99.240;2022-09-17T08:23:43;5.50;;;1.60;;
73672;SDS011;61972;19.480;-99.240;2022-09-17T08:26:16;5.85;;;1.80;;
73672;SDS011;61972;19.480;-99.240;2022-09-17T08:28:45;4.97;;;1.75;;
73672;SDS011;61972;19.480;-99.240;2022-09-17T08:31:14;7.82;;;1.90;;
73672;SDS011;61972;19.480;-99.240;2022-09-17T08:33:41;6.80;;;1.90;;
73672;SDS011;61972;19.480;-99.240;2022-09-17T08:36:09;4.60;;;1.50;;
73672;SDS011;61972;19.480;-99.240;2022-09-17T08:38:36;4.03;;;1.45;;
73672;SDS011;61972;19.480;-99.240;2022-09-17T08:46:47;3.75;;;1.50;;
73672;SDS011;61972;19.480;-99.240;2022-09-17T08:57:27;3.05;;;1.60;;
73672;SDS011;61972;19.480;-99.240;2022-09-17T09:02:55;3.20;;;1.40;;
73672;SDS011;61972;19.480;-99.240;2022-09-17T09:05:41;3.22;;;1.50;;
73672;SDS011;61972;19.480;-99.240;2022-09-17T09:10:56;3.53;;;1.50;;
73672;SDS011;61972;19.480;-99.240;2022-09-17T09:13:30;3.97;;;1.70;;
73672;SDS011;61972;19.480;-99.240;2022-09-17T09:16:05;2.87;;;1.20;;
73672;SDS011;61972;19.480;-99.240;2022-09-17T09:18:39;4.13;;;1.73;;
73672;SDS011;61972;19.480;-99.240;2022-09-17T09:26:36;2.85;;;1.30;;
73672;SDS011;61972;19.480;-99.240;2022-09-17T09:32:57;3.45;;;1.13;;
73672;SDS011;61972;19.480;-99.240;2022-09-17T09:35:38;3.50;;;1.40;;
73672;SDS011;61972;19.480;-99.240;2022-09-17T09:40:50;3.67;;;1.30;;
73672;SDS011;61972;19.480;-99.240;2022-09-17T09:43:23;3.63;;;1.20;;
73672;SDS011;61972;19.480;-99.240;2022-09-17T09:59:00;3.38;;;1.35;;
73672;SDS011;61972;19.480;-99.240;2022-09-17T10:01:26;2.90;;;1.27;;
73672;SDS011;61972;19.480;-99.240;2022-09-17T10:03:55;2.45;;;1.30;;
73672;SDS011;61972;19.480;-99.240;2022-09-17T10:06:23;2.53;;;1.10;;
73672;SDS011;61972;19.480;-99.240;2022-09-17T10:11:23;3.05;;;1.20;;
73672;SDS011;61972;19.480;-99.240;2022-09-17T10:13:51;5.05;;;1.10;;
73672;SDS011;61972;19.480;-99.240;2022-09-17T10:16:21;5.70;;;1.30;;
73672;SDS011;61972;19.480;-99.240;2022-09-17T10:19:11;2.20;;;1.25;;
73672;SDS011;61972;19.480;-99.240;2022-09-17T10:21:42;9.47;;;1.40;;
73672;SDS011;61972;19.480;-99.240;2022-09-17T10:26:50;4.32;;;1.15;;
73672;SDS011;61972;19.480;-99.240;2022-09-17T10:29:20;2.97;;;1.10;;
73672;SDS011;61972;19.480;-99.240;2022-09-17T10:31:50;2.40;;;1.17;;
73672;SDS011;61972;19.480;-99.240;2022-09-17T10:34:21;5.03;;;1.10;;
73672;SDS011;61972;19.480;-99.240;2022-09-17T10:36:50;2.25;;;1.20;;
73672;SDS011;61972;19.480;-99.240;2022-09-17T10:42:16;2.40;;;1.20;;
73672;SDS011;61972;19.480;-99.240;2022-09-17T10:44:55;2.70;;;1.40;;
73672;SDS011;61972;19.480;-99.240;2022-09-17T10:47:24;1.93;;;1.00;;
73672;SDS011;61972;19.480;-99.240;2022-09-17T10:50:05;4.00;;;1.35;;
73672;SDS011;61972;19.480;-99.240;2022-09-17T10:52:46;3.08;;;1.40;;
73672;SDS011;61972;19.480;-99.240;2022-09-17T10:55:20;2.50;;;1.20;;
73672;SDS011;61972;19.480;-99.240;2022-09-17T10:58:01;3.42;;;1.30;;
73672;SDS011;61972;19.480;-99.240;2022-09-17T11:00:56;2.00;;;1.20;;
73672;SDS011;61972;19.480;-99.240;2022-09-17T11:12:14;2.33;;;1.30;;
73672;SDS011;61972;19.480;-99.240;2022-09-17T11:14:49;2.67;;;1.37;;
73672;SDS011;61972;19.480;-99.240;2022-09-17T11:25:52;2.80;;;1.58;;
73672;SDS011;61972;19.480;-99.240;2022-09-17T11:42:18;3.23;;;1.30;;
73672;SDS011;61972;19.480;-99.240;2022-09-17T11:44:50;2.30;;;1.30;;
73672;SDS011;61972;19.480;-99.240;2022-09-17T11:49:59;3.47;;;1.40;;
73672;SDS011;61972;19.480;-99.240;2022-09-17T11:55:20;2.30;;;1.40;;
73672;SDS011;61972;19.480;-99.240;2022-09-17T11:57:51;2.05;;;1.27;;
73672;SDS011;61972;19.480;-99.240;2022-09-17T12:00:25;2.15;;;1.42;;
73672;SDS011;61972;19.480;-99.240;2022-09-17T12:02:58;2.47;;;1.40;;
73672;SDS011;61972;19.480;-99.240;2022-09-17T12:05:29;2.22;;;1.20;;
73672;SDS011;61972;19.480;-99.240;2022-09-17T12:10:48;3.45;;;1.63;;
73672;SDS011;61972;19.480;-99.240;2022-09-17T12:16:37;2.42;;;1.40;;
73672;SDS011;61972;19.480;-99.240;2022-09-17T12:22:05;3.90;;;1.60;;
73672;SDS011;61972;19.480;-99.240;2022-09-17T12:24:35;3.17;;;1.80;;
73672;SDS011;61972;19.480;-99.240;2022-09-17T12:30:04;3.17;;;1.67;;
73672;SDS011;61972;19.480;-99.240;2022-09-17T12:43:33;2.70;;;1.60;;
73672;SDS011;61972;19.480;-99.240;2022-09-17T12:51:57;3.60;;;1.63;;
73672;SDS011;61972;19.480;-99.240;2022-09-17T13:00:07;3.05;;;1.92;;
73672;SDS011;61972;19.480;-99.240;2022-09-17T13:02:40;4.40;;;1.70;;
73672;SDS011;61972;19.480;-99.240;2022-09-17T13:15:34;4.50;;;2.10;;
73672;SDS011;61972;19.480;-99.240;2022-09-17T13:18:12;2.90;;;1.90;;
73672;SDS011;61972;19.480;-99.240;2022-09-17T13:20:48;4.72;;;1.83;;
73672;SDS011;61972;19.480;-99.240;2022-09-17T13:23:28;4.03;;;1.90;;
73672;SDS011;61972;19.480;-99.240;2022-09-17T13:26:20;3.43;;;2.20;;
73672;SDS011;61972;19.480;-99.240;2022-09-17T13:28:58;5.18;;;2.33;;
73672;SDS011;61972;19.480;-99.240;2022-09-17T13:34:02;4.15;;;2.10;;
73672;SDS011;61972;19.480;-99.240;2022-09-17T13:38:59;3.17;;;2.17;;
73672;SDS011;61972;19.480;-99.240;2022-09-17T13:41:26;3.85;;;2.40;;
73672;SDS011;61972;19.480;-99.240;2022-09-17T13:43:54;3.13;;;2.00;;
73672;SDS011;61972;19.480;-99.240;2022-09-17T13:46:22;4.03;;;2.10;;
73672;SDS011;61972;19.480;-99.240;2022-09-17T13:48:54;3.15;;;2.20;;
73672;SDS011;61972;19.480;-99.240;2022-09-17T13:53:59;4.63;;;1.90;;
73672;SDS011;61972;19.480;-99.240;2022-09-17T13:59:08;3.58;;;2.10;;
73672;SDS011;61972;19.480;-99.240;2022-09-17T14:01:55;4.30;;;2.10;;
73672;SDS011;61972;19.480;-99.240;2022-09-17T14:04:31;4.13;;;1.90;;
73672;SDS011;61972;19.480;-99.240;2022-09-17T14:06:57;3.92;;;2.00;;
73672;SDS011;61972;19.480;-99.240;2022-09-17T14:23:45;3.20;;;1.65;;
73672;SDS011;61972;19.480;-99.240;2022-09-17T14:26:18;3.08;;;1.70;;
73672;SDS011;61972;19.480;-99.240;2022-09-17T14:31:48;3.03;;;1.70;;
73672;SDS011;61972;19.480;-99.240;2022-09-17T14:34:18;3.20;;;1.73;;
73672;SDS011;61972;19.480;-99.240;2022-09-17T14:36:46;3.00;;;1.95;;
73672;SDS011;61972;19.480;-99.240;2022-09-17T14:39:16;2.80;;;1.75;;
73672;SDS011;61972;19.480;-99.240;2022-09-17T14:41:47;3.15;;;1.67;;
73672;SDS011;61972;19.480;-99.240;2022-09-17T14:44:19;2.90;;;1.80;;
73672;SDS011;61972;19.480;-99.240;2022-09-17T14:47:12;3.90;;;1.73;;
73672;SDS011;61972;19.480;-99.240;2022-09-17T14:49:40;3.03;;;1.60;;
73672;SDS011;61972;19.480;-99.240;2022-09-17T14:52:23;3.35;;;1.40;;
73672;SDS011;61972;19.480;-99.240;2022-09-17T14:55:08;3.10;;;1.77;;
73672;SDS011;61972;19.480;-99.240;2022-09-17T14:57:46;2.43;;;1.47;;
73672;SDS011;61972;19.480;-99.240;2022-09-17T15:00:24;3.63;;;1.77;;
73672;SDS011;61972;19.480;-99.240;2022-09-17T15:02:55;3.28;;;1.73;;
73672;SDS011;61972;19.480;-99.240;2022-09-17T15:05:29;3.13;;;1.80;;
73672;SDS011;61972;19.480;-99.240;2022-09-17T15:13:28;2.45;;;1.48;;
73672;SDS011;61972;19.480;-99.240;2022-09-17T15:16:00;3.30;;;1.60;;
73672;SDS011;61972;19.480;-99.240;2022-09-17T15:18:37;3.45;;;1.42;;
73672;SDS011;61972;19.480;-99.240;2022-09-17T15:21:20;2.22;;;1.50;;
73672;SDS011;61972;19.480;-99.240;2022-09-17T15:23:56;2.87;;;1.60;;
73672;SDS011;61972;19.480;-99.240;2022-09-17T15:26:32;2.85;;;1.52;;
73672;SDS011;61972;19.480;-99.240;2022-09-17T15:29:02;2.65;;;1.42;;
73672;SDS011;61972;19.480;-99.240;2022-09-17T15:31:29;2.50;;;1.50;;
73672;SDS011;61972;19.480;-99.240;2022-09-17T15:33:58;2.67;;;1.42;;
73672;SDS011;61972;19.480;-99.240;2022-09-17T15:36:25;2.80;;;1.43;;
73672;SDS011;61972;19.480;-99.240;2022-09-17T15:38:52;3.65;;;1.60;;
73672;SDS011;61972;19.480;-99.240;2022-09-17T15:44:32;3.00;;;1.52;;
73672;SDS011;61972;19.480;-99.240;2022-09-17T15:46:52;2.78;;;1.50;;
73672;SDS011;61972;19.480;-99.240;2022-09-17T15:49:31;2.40;;;1.50;;
73672;SDS011;61972;19.480;-99.240;2022-09-17T15:54:56;2.88;;;1.65;;
73672;SDS011;61972;19.480;-99.240;2022-09-17T15:57:22;2.67;;;1.75;;
73672;SDS011;61972;19.480;-99.240;2022-09-17T15:59:50;3.28;;;1.70;;
73672;SDS011;61972;19.480;-99.240;2022-09-17T16:02:24;2.50;;;1.40;;
73672;SDS011;61972;19.480;-99.240;2022-09-17T16:05:40;2.55;;;1.63;;
73672;SDS011;61972;19.480;-99.240;2022-09-17T16:07:51;3.80;;;1.52;;
73672;SDS011;61972;19.480;-99.240;2022-09-17T16:10:19;2.55;;;1.58;;
73672;SDS011;61972;19.480;-99.240;2022-09-17T16:12:47;4.60;;;1.92;;
73672;SDS011;61972;19.480;-99.240;2022-09-17T16:15:13;2.73;;;1.80;;
73672;SDS011;61972;19.480;-99.240;2022-09-17T16:17:42;2.95;;;1.65;;
73672;SDS011;61972;19.480;-99.240;2022-09-17T16:22:44;3.10;;;1.75;;
73672;SDS011;61972;19.480;-99.240;2022-09-17T16:25:12;3.20;;;1.70;;
73672;SDS011;61972;19.480;-99.240;2022-09-17T16:27:46;3.23;;;1.60;;
73672;SDS011;61972;19.480;-99.240;2022-09-17T16:30:22;3.60;;;1.75;;
73672;SDS011;61972;19.480;-99.240;2022-09-17T16:32:49;2.97;;;1.60;;
73672;SDS011;61972;19.480;-99.240;2022-09-17T16:35:17;3.40;;;2.00;;
73672;SDS011;61972;19.480;-99.240;2022-09-17T16:37:48;3.20;;;1.88;;
73672;SDS011;61972;19.480;-99.240;2022-09-17T16:40:19;2.97;;;1.83;;
73672;SDS011;61972;19.480;-99.240;2022-09-17T16:42:47;3.05;;;1.70;;
73672;SDS011;61972;19.480;-99.240;2022-09-17T16:45:14;2.65;;;1.60;;
73672;SDS011;61972;19.480;-99.240;2022-09-17T16:47:40;2.65;;;1.70;;
73672;SDS011;61972;19.480;-99.240;2022-09-17T16:50:11;2.67;;;1.73;;
73672;SDS011;61972;19.480;-99.240;2022-09-17T16:52:39;3.07;;;1.83;;
73672;SDS011;61972;19.480;-99.240;2022-09-17T16:55:06;5.03;;;1.77;;
73672;SDS011;61972;19.480;-99.240;2022-09-17T16:57:32;2.78;;;1.70;;
73672;SDS011;61972;19.480;-99.240;2022-09-17T16:59:58;3.22;;;1.60;;
73672;SDS011;61972;19.480;-99.240;2022-09-17T17:02:25;3.60;;;1.83;;
73672;SDS011;61972;19.480;-99.240;2022-09-17T17:04:51;2.77;;;1.63;;
73672;SDS011;61972;19.480;-99.240;2022-09-17T17:07:18;7.30;;;3.40;;
73672;SDS011;61972;19.480;-99.240;2022-09-17T17:09:45;5.05;;;3.30;;
73672;SDS011;61972;19.480;-99.240;2022-09-17T17:12:11;5.93;;;3.15;;
73672;SDS011;61972;19.480;-99.240;2022-09-17T17:14:37;5.88;;;3.40;;
73672;SDS011;61972;19.480;-99.240;2022-09-17T17:17:03;7.77;;;3.70;;
73672;SDS011;61972;19.480;-99.240;2022-09-17T17:19:29;5.50;;;3.72;;
73672;SDS011;61972;19.480;-99.240;2022-09-17T17:21:55;6.70;;;3.67;;
73672;SDS011;61972;19.480;-99.240;2022-09-17T17:24:21;7.10;;;3.88;;
73672;SDS011;61972;19.480;-99.240;2022-09-17T17:26:47;7.15;;;4.10;;
73672;SDS011;61972;19.480;-99.240;2022-09-17T17:29:14;5.43;;;3.70;;
73672;SDS011;61972;19.480;-99.240;2022-09-17T17:31:41;6.35;;;3.78;;
73672;SDS011;61972;19.480;-99.240;2022-09-17T17:34:07;5.90;;;3.90;;
73672;SDS011;61972;19.480;-99.240;2022-09-17T17:36:33;7.53;;;4.05;;
73672;SDS011;61972;19.480;-99.240;2022-09-17T17:38:59;6.50;;;3.83;;
73672;SDS011;61972;19.480;-99.240;2022-09-17T17:41:26;5.20;;;3.80;;
73672;SDS011;61972;19.480;-99.240;2022-09-17T17:43:53;6.97;;;4.10;;
73672;SDS011;61972;19.480;-99.240;2022-09-17T17:46:20;7.50;;;4.38;;
73672;SDS011;61972;19.480;-99.240;2022-09-17T17:48:47;5.72;;;3.90;;
73672;SDS011;61972;19.480;-99.240;2022-09-17T17:51:14;5.60;;;3.38;;
73672;SDS011;61972;19.480;-99.240;2022-09-17T17:53:43;5.57;;;3.60;;
73672;SDS011;61972;19.480;-99.240;2022-09-17T17:56:10;7.22;;;3.70;;
73672;SDS011;61972;19.480;-99.240;2022-09-17T17:58:37;5.32;;;3.90;;
73672;SDS011;61972;19.480;-99.240;2022-09-17T18:01:14;5.80;;;4.18;;
73672;SDS011;61972;19.480;-99.240;2022-09-17T18:03:42;6.75;;;3.70;;
73672;SDS011;61972;19.480;-99.240;2022-09-17T18:06:09;6.13;;;4.10;;
73672;SDS011;61972;19.480;-99.240;2022-09-17T18:08:36;6.38;;;4.03;;
73672;SDS011;61972;19.480;-99.240;2022-09-17T18:11:03;6.13;;;3.63;;
73672;SDS011;61972;19.480;-99.240;2022-09-17T18:13:32;6.72;;;3.90;;
73672;SDS011;61972;19.480;-99.240;2022-09-17T18:15:59;5.82;;;3.90;;
73672;SDS011;61972;19.480;-99.240;2022-09-17T18:18:36;5.23;;;3.60;;
73672;SDS011;61972;19.480;-99.240;2022-09-17T18:21:05;6.43;;;4.00;;
73672;SDS011;61972;19.480;-99.240;2022-09-17T18:23:34;5.93;;;3.60;;
73672;SDS011;61972;19.480;-99.240;2022-09-17T18:26:01;6.30;;;3.50;;
73672;SDS011;61972;19.480;-99.240;2022-09-17T18:28:29;7.93;;;3.42;;
73672;SDS011;61972;19.480;-99.240;2022-09-17T18:30:56;5.33;;;3.20;;
73672;SDS011;61972;19.480;-99.240;2022-09-17T18:33:32;7.38;;;3.83;;
73672;SDS011;61972;19.480;-99.240;2022-09-17T18:36:02;6.30;;;3.70;;
73672;SDS011;61972;19.480;-99.240;2022-09-17T18:38:29;5.53;;;3.60;;
73672;SDS011;61972;19.480;-99.240;2022-09-17T18:41:01;6.03;;;3.67;;
73672;SDS011;61972;19.480;-99.240;2022-09-17T18:43:28;4.47;;;2.90;;
73672;SDS011;61972;19.480;-99.240;2022-09-17T18:45:55;6.20;;;3.20;;
73672;SDS011;61972;19.480;-99.240;2022-09-17T18:48:23;4.25;;;2.83;;
73672;SDS011;61972;19.480;-99.240;2022-09-17T18:51:05;5.07;;;2.80;;
73672;SDS011;61972;19.480;-99.240;2022-09-17T18:53:35;4.38;;;2.70;;
73672;SDS011;61972;19.480;-99.240;2022-09-17T18:56:15;4.57;;;3.20;;
73672;SDS011;61972;19.480;-99.240;2022-09-17T18:58:45;4.63;;;3.00;;
73672;SDS011;61972;19.480;-99.240;2022-09-17T19:01:18;4.70;;;3.03;;
73672;SDS011;61972;19.480;-99.240;2022-09-17T19:03:46;6.03;;;2.80;;
73672;SDS011;61972;19.480;-99.240;2022-09-17T19:06:12;6.00;;;3.00;;
73672;SDS011;61972;19.480;-99.240;2022-09-17T19:08:40;4.07;;;2.77;;
73672;SDS011;61972;19.480;-99.240;2022-09-17T19:11:06;4.97;;;2.42;;
73672;SDS011;61972;19.480;-99.240;2022-09-17T19:13:34;7.60;;;3.33;;
73672;SDS011;61972;19.480;-99.240;2022-09-17T19:16:02;5.18;;;3.10;;
73672;SDS011;61972;19.480;-99.240;2022-09-17T19:18:28;4.82;;;3.10;;
73672;SDS011;61972;19.480;-99.240;2022-09-17T19:21:00;5.30;;;2.80;;
73672;SDS011;61972;19.480;-99.240;2022-09-17T19:23:28;5.55;;;2.70;;
73672;SDS011;61972;19.480;-99.240;2022-09-17T19:25:56;5.55;;;2.92;;